sim
Sign-in with your pilot id or email,
or register
Callsign
Passwort

Schedule Details

Flight Number: OEO6729
Departure: Boston Logan International Airport (KBOS) at 23:45
Arrival: Munich Airport (EDDM) at 07:35

Weather Information
Getting current METAR information for KBOS 231154Z 27011KT 10SM FEW160 FEW250 14/04 A2975 RMK AO2 SLP075 T01390044 10139 20128 51005
Getting current METAR information for EDDM 231150Z 24006KT 220V320 9999 FEW010 BKN030 18/16 Q1010 TEMPO SHRA BKN020CB

Schedule Frequency

Route Map